createdAt,value
2023-04-18T00:01:54.972Z,4.93
2023-04-18T00:04:22.904Z,5.40
2023-04-18T00:06:51.854Z,4.78
2023-04-18T00:09:19.770Z,4.90
2023-04-18T00:11:47.543Z,4.63
2023-04-18T00:14:15.569Z,4.95
2023-04-18T00:16:43.606Z,4.68
2023-04-18T00:19:14.217Z,5.15
2023-04-18T00:21:44.837Z,5.57
2023-04-18T00:24:12.868Z,4.93
2023-04-18T00:26:40.912Z,5.03
2023-04-18T00:29:08.707Z,4.80
2023-04-18T00:31:36.454Z,5.10
2023-04-18T00:34:04.274Z,5.22
2023-04-18T00:36:33.460Z,4.55
2023-04-18T00:39:01.184Z,5.32
2023-04-18T00:41:29.016Z,5.03
2023-04-18T00:43:56.936Z,5.22
2023-04-18T00:46:24.864Z,5.38
2023-04-18T00:48:52.796Z,4.97
2023-04-18T00:51:21.341Z,5.30
2023-04-18T00:53:51.731Z,5.63
2023-04-18T00:56:19.542Z,5.20
2023-04-18T00:58:47.370Z,5.13
2023-04-18T01:01:15.156Z,5.05
2023-04-18T01:03:43.289Z,5.65
2023-04-18T01:06:11.667Z,5.35
2023-04-18T01:08:39.580Z,5.55
2023-04-18T01:11:08.780Z,5.82
2023-04-18T01:13:36.577Z,5.80
2023-04-18T01:16:04.661Z,5.65
2023-04-18T01:18:32.532Z,5.32
2023-04-18T01:21:00.869Z,5.60
2023-04-18T01:23:28.742Z,5.60
2023-04-18T01:25:57.926Z,5.35
2023-04-18T01:28:27.790Z,5.38
2023-04-18T01:30:55.851Z,5.80
2023-04-18T01:33:23.586Z,5.70
2023-04-18T01:35:51.542Z,5.90
2023-04-18T01:38:19.313Z,5.82
2023-04-18T01:40:47.035Z,5.90
2023-04-18T01:43:16.321Z,5.78
2023-04-18T01:45:43.962Z,5.82
2023-04-18T01:48:11.741Z,6.32
2023-04-18T01:50:39.510Z,6.18
2023-04-18T01:53:07.650Z,6.35
2023-04-18T01:55:35.559Z,6.50
2023-04-18T01:58:03.302Z,6.45
2023-04-18T02:00:32.462Z,6.32
2023-04-18T02:03:00.652Z,5.88
2023-04-18T02:05:28.543Z,6.00
2023-04-18T02:07:56.216Z,5.80
2023-04-18T02:10:24.537Z,6.53
2023-04-18T02:12:52.316Z,6.68
2023-04-18T02:15:20.551Z,6.45
2023-04-18T02:17:50.546Z,6.65
2023-04-18T02:20:18.319Z,6.30
2023-04-18T02:22:47.785Z,7.07
2023-04-18T02:25:15.497Z,6.40
2023-04-18T02:27:43.225Z,6.35
2023-04-18T02:30:11.433Z,6.82
2023-04-18T02:32:39.179Z,6.30
2023-04-18T02:35:09.176Z,7.35
2023-04-18T02:37:36.935Z,7.03
2023-04-18T02:40:05.645Z,7.22
2023-04-18T02:42:33.370Z,6.88
2023-04-18T02:45:01.140Z,6.68
2023-04-18T02:47:30.364Z,6.82
2023-04-18T02:49:59.525Z,6.97
2023-04-18T02:52:28.752Z,6.43
2023-04-18T02:54:56.624Z,6.80
2023-04-18T02:57:24.329Z,7.00
2023-04-18T02:59:52.124Z,7.55
2023-04-18T03:02:20.943Z,7.63
2023-04-18T03:04:48.915Z,7.05
2023-04-18T03:07:16.774Z,6.93
2023-04-18T03:09:46.231Z,6.85
2023-04-18T03:12:14.020Z,7.18
2023-04-18T03:14:41.790Z,7.70
2023-04-18T03:17:09.607Z,7.90
2023-04-18T03:19:37.494Z,7.18
2023-04-18T03:22:06.148Z,7.05
2023-04-18T03:24:33.869Z,7.60
2023-04-18T03:27:03.071Z,7.35
2023-04-18T03:29:31.090Z,8.25
2023-04-18T03:31:58.928Z,7.90
2023-04-18T03:34:26.769Z,7.50
2023-04-18T03:36:55.227Z,7.95
2023-04-18T03:39:23.259Z,7.80
2023-04-18T03:41:52.166Z,7.68
2023-04-18T03:44:21.264Z,7.75
2023-04-18T03:46:49.007Z,20.48
2023-04-18T03:49:16.680Z,9.10
2023-04-18T03:51:47.576Z,8.02
2023-04-18T03:54:15.584Z,8.32
2023-04-18T03:56:43.606Z,8.38
2023-04-18T03:59:12.040Z,8.13
2023-04-18T04:01:41.256Z,8.60
2023-04-18T04:04:12.197Z,8.00
2023-04-18T04:06:40.334Z,7.93
2023-04-18T04:09:08.358Z,8.13
2023-04-18T04:11:36.557Z,8.27
2023-04-18T04:14:04.492Z,8.68
2023-04-18T04:16:32.537Z,8.38
2023-04-18T04:19:01.748Z,9.05
2023-04-18T04:21:31.355Z,8.65
2023-04-18T04:23:59.354Z,9.00
2023-04-18T04:26:27.755Z,8.73
2023-04-18T04:28:55.566Z,8.75
2023-04-18T04:31:23.456Z,9.00
2023-04-18T04:33:51.279Z,21.50
2023-04-18T04:36:22.921Z,10.65
2023-04-18T04:38:50.714Z,8.30
2023-04-18T04:41:18.520Z,9.05
2023-04-18T04:43:47.028Z,8.45
2023-04-18T04:46:15.514Z,9.07
2023-04-18T04:48:43.227Z,9.15
2023-04-18T04:51:11.056Z,8.73
2023-04-18T04:53:40.195Z,8.77
2023-04-18T04:56:09.296Z,8.40
2023-04-18T04:58:37.024Z,8.65
2023-04-18T05:01:07.918Z,8.80
2023-04-18T05:03:36.519Z,8.68
2023-04-18T05:06:04.855Z,9.30
2023-04-18T05:08:32.820Z,8.77
2023-04-18T05:11:02.839Z,9.68
2023-04-18T05:13:33.737Z,8.48
2023-04-18T05:16:02.922Z,8.75
2023-04-18T05:18:33.008Z,9.10
2023-04-18T05:21:02.256Z,9.23
2023-04-18T05:23:30.471Z,9.63
2023-04-18T05:25:58.294Z,9.38
2023-04-18T05:28:27.528Z,8.48
2023-04-18T05:31:01.089Z,9.13
2023-04-18T05:33:29.104Z,9.02
2023-04-18T05:35:57.727Z,9.85
2023-04-18T05:38:25.759Z,9.00
2023-04-18T05:40:55.562Z,9.20
2023-04-18T05:43:23.713Z,9.68
2023-04-18T05:45:54.283Z,9.50
2023-04-18T05:50:53.091Z,9.38
2023-04-18T05:53:20.908Z,8.95
2023-04-18T05:55:48.959Z,9.13
2023-04-18T05:58:16.818Z,9.80
2023-04-18T06:00:45.074Z,10.15
2023-04-18T06:03:14.268Z,9.18
2023-04-18T06:05:42.343Z,8.45
2023-04-18T06:08:10.365Z,9.07
2023-04-18T06:10:39.190Z,9.45
2023-04-18T06:13:07.125Z,9.13
2023-04-18T06:15:36.316Z,9.73
2023-04-18T06:18:04.157Z,9.75
2023-04-18T06:20:33.313Z,10.20
2023-04-18T06:23:01.060Z,10.27
2023-04-18T06:25:28.910Z,9.20
2023-04-18T06:27:56.678Z,9.05
2023-04-18T06:30:24.807Z,9.18
2023-04-18T06:32:52.649Z,9.15
2023-04-18T06:35:20.539Z,10.07
2023-04-18T06:37:50.998Z,11.18
2023-04-18T06:40:18.942Z,10.00
2023-04-18T06:42:46.764Z,10.00
2023-04-18T06:45:14.537Z,9.93
2023-04-18T06:47:42.535Z,10.73
2023-04-18T06:50:10.908Z,10.18
2023-04-18T06:52:40.770Z,9.90
2023-04-18T06:55:10.424Z,9.05
2023-04-18T06:57:38.177Z,12.32
2023-04-18T07:00:07.072Z,19.70
2023-04-18T07:02:36.671Z,19.67
2023-04-18T07:05:05.077Z,15.23
2023-04-18T07:07:33.992Z,10.90
2023-04-18T07:10:02.130Z,11.05
2023-04-18T07:12:31.432Z,10.50
2023-04-18T07:14:59.305Z,11.38
2023-04-18T07:17:29.550Z,10.57
2023-04-18T07:19:57.695Z,11.48
2023-04-18T07:22:25.462Z,10.70
2023-04-18T07:24:53.368Z,11.45
2023-04-18T07:27:21.099Z,10.75
2023-04-18T07:29:50.234Z,11.50
2023-04-18T07:32:18.177Z,11.70
2023-04-18T07:34:46.184Z,11.52
2023-04-18T07:37:15.191Z,11.10
2023-04-18T07:39:43.204Z,11.55
2023-04-18T07:42:11.355Z,10.75
2023-04-18T07:44:39.270Z,11.25
2023-04-18T07:47:11.153Z,10.48
2023-04-18T07:49:39.446Z,11.15
2023-04-18T07:52:07.322Z,10.98
2023-04-18T07:54:35.047Z,10.90
2023-04-18T07:57:02.817Z,10.98
2023-04-18T07:59:32.179Z,10.60
2023-04-18T08:02:00.052Z,10.80
2023-04-18T08:04:30.448Z,11.13
2023-04-18T08:06:58.491Z,13.00
2023-04-18T08:09:26.242Z,11.45
2023-04-18T08:11:55.206Z,10.07
2023-04-18T08:14:23.023Z,10.63
2023-04-18T08:16:50.823Z,11.00
2023-04-18T08:19:18.616Z,10.20
2023-04-18T08:21:47.773Z,11.13
2023-04-18T08:24:15.578Z,11.57
2023-04-18T08:26:43.303Z,10.88
2023-04-18T08:29:11.716Z,10.50
2023-04-18T08:31:40.196Z,11.15
2023-04-18T08:34:08.079Z,11.50
2023-04-18T08:36:36.257Z,10.55
2023-04-18T08:39:06.307Z,11.00
2023-04-18T08:41:38.607Z,10.90
2023-04-18T08:44:07.784Z,10.77
2023-04-18T08:46:37.136Z,10.05
2023-04-18T08:49:05.048Z,12.48
2023-04-18T08:51:34.249Z,12.98
2023-04-18T08:54:04.575Z,12.57
2023-04-18T08:56:33.754Z,13.70
2023-04-18T08:59:01.435Z,11.15
2023-04-18T09:01:52.404Z,10.68
2023-04-18T09:04:35.432Z,10.20
2023-04-18T09:07:04.019Z,10.95
2023-04-18T09:09:48.257Z,12.23
2023-04-18T09:12:19.581Z,12.10
2023-04-18T09:14:48.791Z,9.90
2023-04-18T09:17:21.864Z,8.95
2023-04-18T09:19:50.409Z,9.73
2023-04-18T09:22:18.869Z,6.78
2023-04-18T09:24:54.300Z,5.78
2023-04-18T09:27:23.716Z,6.53
2023-04-18T09:29:52.932Z,7.20
2023-04-18T09:32:25.117Z,9.10
2023-04-18T09:34:58.295Z,9.63
2023-04-18T09:37:27.281Z,10.95
2023-04-18T09:39:55.676Z,10.23
2023-04-18T09:42:27.483Z,9.75
2023-04-18T09:45:01.951Z,11.13
2023-04-18T09:47:29.848Z,9.90
2023-04-18T09:49:57.717Z,10.13
2023-04-18T09:52:26.752Z,9.75
2023-04-18T09:54:59.199Z,9.57
2023-04-18T09:57:31.229Z,9.00
2023-04-18T10:00:10.634Z,9.48
2023-04-18T10:02:49.328Z,12.02
2023-04-18T10:05:20.790Z,8.60
2023-04-18T10:07:50.695Z,8.68
2023-04-18T10:10:19.061Z,9.45
2023-04-18T10:12:50.734Z,10.00
2023-04-18T10:15:21.265Z,9.15
2023-04-18T10:18:04.486Z,9.48
2023-04-18T10:20:35.950Z,9.35
2023-04-18T10:23:35.697Z,10.00
2023-04-18T10:26:04.164Z,9.10
2023-04-18T10:28:56.724Z,9.25
2023-04-18T10:31:26.355Z,8.80
2023-04-18T10:39:00.575Z,8.15
2023-04-18T10:41:29.962Z,8.38
2023-04-18T10:44:19.558Z,9.38
2023-04-18T10:47:23.054Z,8.80
2023-04-18T10:50:01.607Z,8.38
2023-04-18T10:52:30.387Z,7.50
2023-04-18T10:55:27.490Z,8.82
2023-04-18T10:57:58.762Z,9.02
2023-04-18T11:00:29.209Z,9.25
2023-04-18T11:02:57.920Z,10.32
2023-04-18T11:05:27.723Z,8.90
2023-04-18T11:07:56.288Z,9.32
2023-04-18T11:10:25.623Z,9.00
2023-04-18T11:12:54.284Z,9.43
2023-04-18T11:15:23.894Z,8.98
2023-04-18T11:18:00.899Z,10.13
2023-04-18T11:20:29.436Z,8.20
2023-04-18T11:22:59.259Z,8.20
2023-04-18T11:25:30.287Z,8.48
2023-04-18T11:28:00.905Z,8.53
2023-04-18T11:30:31.374Z,8.73
2023-04-18T11:33:00.618Z,7.90
2023-04-18T11:35:28.457Z,8.63
2023-04-18T11:37:56.315Z,8.35
2023-04-18T11:40:24.441Z,8.25
2023-04-18T11:42:55.392Z,8.20
2023-04-18T11:45:23.266Z,7.03
2023-04-18T11:47:58.203Z,8.57
2023-04-18T11:50:28.191Z,8.35
2023-04-18T11:52:56.937Z,7.85
2023-04-18T11:55:27.216Z,7.18
2023-04-18T11:57:56.763Z,6.90
2023-04-18T12:00:33.633Z,6.72
2023-04-18T12:03:02.863Z,6.82
2023-04-18T12:05:33.622Z,6.28
2023-04-18T12:08:09.439Z,6.75
2023-04-18T12:10:38.478Z,6.18
2023-04-18T12:13:09.070Z,5.88
2023-04-18T12:15:40.233Z,6.05
2023-04-18T12:18:09.342Z,6.00
2023-04-18T12:20:46.285Z,5.68
2023-04-18T12:23:30.727Z,5.45
2023-04-18T12:26:03.426Z,4.95
2023-04-18T12:28:31.964Z,5.72
2023-04-18T12:31:00.103Z,4.70
2023-04-18T12:33:27.994Z,5.20
2023-04-18T12:35:57.449Z,5.38
2023-04-18T12:38:25.607Z,5.22
2023-04-18T12:40:54.059Z,5.18
2023-04-18T12:43:21.850Z,5.57
2023-04-18T12:45:50.908Z,5.57
2023-04-18T12:48:19.114Z,4.80
2023-04-18T12:50:46.861Z,4.80
2023-04-18T12:53:16.000Z,5.18
2023-04-18T12:55:44.047Z,4.78
2023-04-18T12:58:11.767Z,4.35
2023-04-18T13:00:39.626Z,5.00
2023-04-18T13:03:08.251Z,4.50
2023-04-18T13:05:37.423Z,4.30
2023-04-18T13:08:16.216Z,5.05
2023-04-18T13:10:47.584Z,4.45
2023-04-18T13:13:15.546Z,4.93
2023-04-18T13:15:43.322Z,4.63
2023-04-18T13:18:11.123Z,4.45
2023-04-18T13:20:38.899Z,4.95
2023-04-18T13:23:06.641Z,4.07
2023-04-18T13:25:34.394Z,5.10
2023-04-18T13:28:03.874Z,4.60
2023-04-18T13:30:32.077Z,4.18
2023-04-18T13:32:59.940Z,4.25
2023-04-18T13:35:27.848Z,4.07
2023-04-18T13:37:56.011Z,3.90
2023-04-18T13:40:24.264Z,3.72
2023-04-18T13:42:52.375Z,4.15
2023-04-18T13:45:21.721Z,7.88
2023-04-18T13:47:49.467Z,4.10
2023-04-18T13:50:17.401Z,3.22
2023-04-18T13:52:46.216Z,3.45
2023-04-18T13:55:13.966Z,4.10
2023-04-18T13:57:41.665Z,3.50
2023-04-18T14:00:13.632Z,3.58
2023-04-18T14:02:42.870Z,3.33
2023-04-18T14:05:11.435Z,3.38
2023-04-18T14:07:39.557Z,2.92
2023-04-18T14:10:08.453Z,3.15
2023-04-18T14:12:36.746Z,3.38
2023-04-18T14:15:05.005Z,3.40
2023-04-18T14:17:32.874Z,2.80
2023-04-18T14:20:02.356Z,3.40
2023-04-18T14:22:30.316Z,3.42
2023-04-18T14:24:58.188Z,3.60
2023-04-18T14:27:26.689Z,3.30
2023-04-18T14:29:54.592Z,3.60
2023-04-18T14:32:22.376Z,3.38
2023-04-18T14:34:50.451Z,3.35
2023-04-18T14:37:19.646Z,3.65
2023-04-18T14:39:48.899Z,3.10
2023-04-18T14:42:17.104Z,3.15
2023-04-18T14:44:44.949Z,3.45
2023-04-18T14:47:12.725Z,3.22
2023-04-18T14:49:40.467Z,3.05
2023-04-18T14:52:08.587Z,3.42
2023-04-18T14:54:37.769Z,4.00
2023-04-18T14:57:08.136Z,6.72
2023-04-18T14:59:35.934Z,5.97
2023-04-18T15:02:03.758Z,4.80
2023-04-18T15:04:31.880Z,5.50
2023-04-18T15:07:00.131Z,4.80
2023-04-18T15:09:28.226Z,5.50
2023-04-18T15:11:58.328Z,5.50
2023-04-18T15:14:26.159Z,4.60
2023-04-18T15:16:53.964Z,4.93
2023-04-18T15:19:21.683Z,4.80
2023-04-18T15:21:49.518Z,4.63
2023-04-18T15:24:17.312Z,5.00
2023-04-18T15:26:45.345Z,5.03
2023-04-18T15:29:14.599Z,5.20
2023-04-18T15:31:42.380Z,5.38
2023-04-18T15:34:10.536Z,6.20
2023-04-18T15:36:38.537Z,5.38
2023-04-18T15:39:06.813Z,5.07
2023-04-18T15:41:36.334Z,5.25
2023-04-18T15:44:06.033Z,4.70
2023-04-18T15:46:37.478Z,5.45
2023-04-18T15:49:05.436Z,4.85
2023-04-18T15:51:33.238Z,5.00
2023-04-18T15:54:01.177Z,4.30
2023-04-18T15:56:30.099Z,4.57
2023-04-18T15:58:59.704Z,4.95
2023-04-18T16:01:27.762Z,5.43
2023-04-18T16:03:57.212Z,4.85
2023-04-18T16:06:25.055Z,5.45
2023-04-18T16:08:52.839Z,5.82
2023-04-18T16:11:21.684Z,6.22
2023-04-18T16:13:51.711Z,6.38
2023-04-18T16:16:22.741Z,6.28
2023-04-18T16:18:50.625Z,6.57
2023-04-18T16:21:19.883Z,6.38
2023-04-18T16:23:47.962Z,6.13
2023-04-18T16:26:15.842Z,6.50
2023-04-18T16:28:43.637Z,6.53
2023-04-18T16:31:11.588Z,6.35
2023-04-18T16:33:39.686Z,6.22
2023-04-18T16:36:07.556Z,6.25
2023-04-18T16:38:36.762Z,6.22
2023-04-18T16:41:04.548Z,6.18
2023-04-18T16:43:36.326Z,6.55
2023-04-18T16:46:04.580Z,5.97
2023-04-18T16:48:32.587Z,5.55
2023-04-18T16:51:00.415Z,5.10
2023-04-18T16:53:28.159Z,4.63
2023-04-18T16:55:57.661Z,5.47
2023-04-18T16:58:25.479Z,6.10
2023-04-18T17:00:53.889Z,5.32
2023-04-18T17:03:21.754Z,6.53
2023-04-18T17:05:49.702Z,5.40
2023-04-18T17:08:17.776Z,4.95
2023-04-18T17:10:45.610Z,5.50
2023-04-18T17:13:14.706Z,6.10
2023-04-18T17:15:42.947Z,7.88
2023-04-18T17:18:10.814Z,5.80
2023-04-18T17:20:38.660Z,5.13
2023-04-18T17:23:06.618Z,5.20
2023-04-18T17:25:34.376Z,5.30
2023-04-18T17:28:02.323Z,5.55
2023-04-18T17:30:31.657Z,4.97
2023-04-18T17:32:59.544Z,4.82
2023-04-18T17:35:27.316Z,5.35
2023-04-18T17:37:55.428Z,5.43
2023-04-18T17:40:23.345Z,5.32
2023-04-18T17:42:51.063Z,5.20
2023-04-18T17:45:20.410Z,5.05
2023-04-18T17:47:50.889Z,8.23
2023-04-18T17:50:19.106Z,5.38
2023-04-18T17:52:46.842Z,5.90
2023-04-18T17:55:14.930Z,5.35
2023-04-18T17:57:42.835Z,5.05
2023-04-18T18:00:13.522Z,5.78
2023-04-18T18:02:42.318Z,5.70
2023-04-18T18:05:14.248Z,6.05
2023-04-18T18:07:43.608Z,5.35
2023-04-18T18:10:12.447Z,6.00
2023-04-18T18:12:40.995Z,5.75
2023-04-18T18:15:09.920Z,5.80
2023-04-18T18:17:37.696Z,5.43
2023-04-18T18:20:09.886Z,5.38
2023-04-18T18:25:07.995Z,5.47
2023-04-18T18:27:36.067Z,5.70
2023-04-18T18:30:04.067Z,6.13
2023-04-18T18:32:31.971Z,6.20
2023-04-18T18:34:59.806Z,5.78
2023-04-18T18:37:27.672Z,6.20
2023-04-18T18:39:57.230Z,6.15
2023-04-18T18:42:25.026Z,5.85
2023-04-18T18:44:52.741Z,7.15
2023-04-18T18:47:20.705Z,5.38
2023-04-18T18:49:48.786Z,6.07
2023-04-18T18:52:16.895Z,6.10
2023-04-18T18:54:44.647Z,6.35
2023-04-18T18:57:13.844Z,5.80
2023-04-18T18:59:42.546Z,16.58
2023-04-18T19:02:10.492Z,7.20
2023-04-18T19:04:38.407Z,6.22
2023-04-18T19:07:07.262Z,6.63
2023-04-18T19:09:36.790Z,6.72
2023-04-18T19:12:04.683Z,6.75
2023-04-18T19:14:33.967Z,6.47
2023-04-18T19:17:01.864Z,6.63
2023-04-18T19:19:29.779Z,6.28
2023-04-18T19:21:57.931Z,6.35
2023-04-18T19:24:26.060Z,6.35
2023-04-18T19:26:53.976Z,6.45
2023-04-18T19:29:23.534Z,6.50
2023-04-18T19:31:52.730Z,6.30
2023-04-18T19:34:21.865Z,7.28
2023-04-18T19:36:49.612Z,6.13
2023-04-18T19:39:18.202Z,6.55
2023-04-18T19:41:46.136Z,6.40
2023-04-18T19:44:13.921Z,5.85
2023-04-18T19:46:41.793Z,6.85
2023-04-18T19:49:11.093Z,6.38
2023-04-18T19:51:40.251Z,6.65
2023-04-18T19:54:08.130Z,6.60
2023-04-18T19:56:35.925Z,15.23
2023-04-18T19:59:06.029Z,8.05
2023-04-18T20:01:34.194Z,7.15
2023-04-18T20:04:02.250Z,7.50
2023-04-18T20:06:32.086Z,6.72
2023-04-18T20:08:59.797Z,6.25
2023-04-18T20:11:27.783Z,7.32
2023-04-18T20:13:56.575Z,6.63
2023-04-18T20:16:24.671Z,6.75
2023-04-18T20:18:54.851Z,6.63
2023-04-18T20:21:22.949Z,6.78
2023-04-18T20:23:52.139Z,6.30
2023-04-18T20:26:19.962Z,15.98
2023-04-18T20:28:48.079Z,8.30
2023-04-18T20:31:15.840Z,6.25
2023-04-18T20:33:43.621Z,6.93
2023-04-18T20:36:11.384Z,6.88
2023-04-18T20:38:40.285Z,7.10
2023-04-18T20:44:43.861Z,6.68
2023-04-18T20:47:14.745Z,7.28
2023-04-18T20:50:22.694Z,6.93
2023-04-18T20:52:50.413Z,7.40
2023-04-18T20:55:18.366Z,6.97
2023-04-18T20:57:47.541Z,7.70
2023-04-18T21:00:16.009Z,6.63
2023-04-18T21:02:45.532Z,6.90
2023-04-18T21:05:13.566Z,6.82
2023-04-18T21:07:42.624Z,7.75
2023-04-18T21:10:12.405Z,6.97
2023-04-18T21:12:40.163Z,6.85
2023-04-18T21:15:10.623Z,6.80
2023-04-18T21:17:38.492Z,7.50
2023-04-18T21:20:08.137Z,8.13
2023-04-18T21:22:38.476Z,7.50
2023-04-18T21:25:07.838Z,7.72
2023-04-18T21:27:38.380Z,7.25
2023-04-18T21:30:07.589Z,7.88
2023-04-18T21:32:36.827Z,7.38
2023-04-18T21:35:04.945Z,7.65
2023-04-18T21:37:32.823Z,6.95
2023-04-18T21:40:01.507Z,7.60
2023-04-18T21:42:29.357Z,7.70
2023-04-18T21:44:57.059Z,7.80
2023-04-18T21:47:25.905Z,11.73
2023-04-18T21:49:55.620Z,8.45
2023-04-18T21:52:23.433Z,8.75
2023-04-18T21:54:51.284Z,8.00
2023-04-18T21:57:19.097Z,8.10
2023-04-18T21:59:46.780Z,8.60
2023-04-18T22:02:15.013Z,8.63
2023-04-18T22:04:44.492Z,7.65
2023-04-18T22:07:15.489Z,7.82
2023-04-18T22:09:44.757Z,7.80
2023-04-18T22:12:14.033Z,8.25
2023-04-18T22:14:42.087Z,8.50
2023-04-18T22:17:09.991Z,8.10
2023-04-18T22:19:37.757Z,8.40
2023-04-18T22:22:05.939Z,8.45
2023-04-18T22:24:35.081Z,7.93
2023-04-18T22:27:02.928Z,8.07
2023-04-18T22:29:30.655Z,8.32
2023-04-18T22:31:58.749Z,8.40
2023-04-18T22:34:26.506Z,7.97
2023-04-18T22:36:54.600Z,7.90
2023-04-18T22:39:22.404Z,7.75
2023-04-18T22:41:51.542Z,8.23
2023-04-18T22:44:19.312Z,8.95
2023-04-18T22:46:48.164Z,8.80
2023-04-18T22:49:17.955Z,8.50
2023-04-18T22:51:46.374Z,8.45
2023-04-18T22:54:14.219Z,8.27
2023-04-18T22:56:42.551Z,8.27
2023-04-18T22:59:11.686Z,8.93
2023-04-18T23:01:39.887Z,8.40
2023-04-18T23:04:08.042Z,8.10
2023-04-18T23:06:37.175Z,9.43
2023-04-18T23:09:05.378Z,9.23
2023-04-18T23:11:33.259Z,8.23
2023-04-18T23:14:01.263Z,9.07
2023-04-18T23:16:30.648Z,8.23
2023-04-18T23:18:58.411Z,9.00
2023-04-18T23:21:26.340Z,9.50
2023-04-18T23:23:54.131Z,8.90
2023-04-18T23:26:22.228Z,9.27
2023-04-18T23:28:50.131Z,8.95
2023-04-18T23:31:18.239Z,9.40
2023-04-18T23:33:47.804Z,8.68
2023-04-18T23:36:15.587Z,8.23
2023-04-18T23:38:43.942Z,9.20
2023-04-18T23:41:12.130Z,9.18
2023-04-18T23:43:40.265Z,9.18
2023-04-18T23:46:08.024Z,8.88
2023-04-18T23:48:35.935Z,9.15
2023-04-18T23:51:05.222Z,9.13
2023-04-18T23:53:32.989Z,9.45
2023-04-18T23:56:00.693Z,9.05
2023-04-18T23:58:28.479Z,8.80
